createdAt,value
2023-06-29T00:01:59.809Z,21.20
2023-06-29T00:04:27.358Z,21.20
2023-06-29T00:06:55.556Z,21.20
2023-06-29T00:09:23.534Z,21.20
2023-06-29T00:11:50.701Z,21.20
2023-06-29T00:14:17.779Z,21.20
2023-06-29T00:16:44.651Z,21.20
2023-06-29T00:19:12.858Z,21.20
2023-06-29T00:21:40.086Z,21.20
2023-06-29T00:24:07.359Z,21.20
2023-06-29T00:26:34.419Z,21.20
2023-06-29T00:29:01.362Z,21.20
2023-06-29T00:31:28.273Z,21.20
2023-06-29T00:33:55.153Z,21.20
2023-06-29T00:36:22.076Z,21.20
2023-06-29T00:38:49.395Z,21.20
2023-06-29T00:41:16.330Z,21.10
2023-06-29T00:43:46.783Z,21.10
2023-06-29T00:46:16.345Z,21.10
2023-06-29T00:48:43.114Z,21.10
2023-06-29T00:51:09.975Z,21.10
2023-06-29T00:53:38.297Z,21.10
2023-06-29T00:56:05.716Z,21.10
2023-06-29T00:58:32.486Z,21.10
2023-06-29T01:01:02.074Z,21.10
2023-06-29T01:03:29.405Z,21.10
2023-06-29T01:06:01.382Z,21.10
2023-06-29T01:08:37.781Z,21.10
2023-06-29T01:11:06.868Z,21.10
2023-06-29T01:13:37.879Z,21.10
2023-06-29T01:16:06.286Z,21.00
2023-06-29T01:18:34.663Z,21.00
2023-06-29T01:21:03.186Z,21.00
2023-06-29T01:23:38.066Z,21.00
2023-06-29T01:26:06.598Z,21.00
2023-06-29T01:28:39.660Z,21.00
2023-06-29T01:31:06.754Z,21.00
2023-06-29T01:33:36.965Z,21.00
2023-06-29T01:36:16.379Z,21.00
2023-06-29T01:38:52.877Z,21.00
2023-06-29T01:41:21.204Z,21.00
2023-06-29T01:43:52.984Z,20.90
2023-06-29T01:46:23.689Z,20.90
2023-06-29T01:48:52.140Z,20.90
2023-06-29T01:51:18.928Z,20.90
2023-06-29T01:53:45.720Z,20.90
2023-06-29T01:56:12.612Z,20.90
2023-06-29T01:58:39.459Z,20.90
2023-06-29T02:01:07.382Z,20.90
2023-06-29T02:03:34.337Z,20.90
2023-06-29T02:06:01.308Z,20.90
2023-06-29T02:08:28.093Z,20.90
2023-06-29T02:10:54.866Z,20.90
2023-06-29T02:13:23.659Z,20.90
2023-06-29T02:15:53.451Z,20.90
2023-06-29T02:18:20.374Z,20.90
2023-06-29T02:20:47.263Z,20.90
2023-06-29T02:23:14.033Z,20.80
2023-06-29T02:25:40.884Z,20.80
2023-06-29T02:28:07.771Z,20.80
2023-06-29T02:30:34.707Z,20.80
2023-06-29T02:33:01.691Z,20.80
2023-06-29T02:35:28.468Z,20.80
2023-06-29T02:37:55.294Z,20.80
2023-06-29T02:40:22.199Z,20.80
2023-06-29T02:42:48.902Z,20.80
2023-06-29T02:45:15.737Z,20.80
2023-06-29T02:47:42.599Z,20.80
2023-06-29T02:50:10.072Z,20.80
2023-06-29T02:52:36.806Z,20.80
2023-06-29T02:55:03.989Z,20.80
2023-06-29T02:57:30.678Z,20.80
2023-06-29T02:59:57.500Z,20.80
2023-06-29T03:02:24.581Z,20.80
2023-06-29T03:04:51.400Z,20.80
2023-06-29T03:07:18.319Z,20.80
2023-06-29T03:09:45.140Z,20.80
2023-06-29T03:12:12.454Z,20.70
2023-06-29T03:14:39.408Z,20.80
2023-06-29T03:17:06.751Z,20.70
2023-06-29T03:19:33.671Z,20.70
2023-06-29T03:22:00.510Z,20.70
2023-06-29T03:24:27.357Z,20.70
2023-06-29T03:26:54.264Z,20.70
2023-06-29T03:29:21.085Z,20.70
2023-06-29T03:31:47.895Z,20.70
2023-06-29T03:34:14.760Z,20.70
2023-06-29T03:36:41.609Z,20.70
2023-06-29T03:39:08.432Z,20.70
2023-06-29T03:41:35.202Z,20.70
2023-06-29T03:44:01.956Z,20.70
2023-06-29T03:46:28.810Z,20.70
2023-06-29T03:48:55.604Z,20.70
2023-06-29T03:51:22.398Z,20.70
2023-06-29T03:53:49.167Z,20.70
2023-06-29T03:56:15.985Z,20.70
2023-06-29T03:58:42.747Z,20.70
2023-06-29T04:01:09.735Z,20.80
2023-06-29T04:03:36.470Z,20.70
2023-06-29T04:06:03.276Z,20.80
2023-06-29T04:08:30.041Z,20.80
2023-06-29T04:10:56.798Z,20.80
2023-06-29T04:13:23.523Z,20.80
2023-06-29T04:15:50.412Z,20.80
2023-06-29T04:18:17.176Z,20.90
2023-06-29T04:20:44.009Z,20.90
2023-06-29T04:23:16.225Z,20.90
2023-06-29T04:25:43.825Z,20.90
2023-06-29T04:28:12.745Z,20.90
2023-06-29T04:30:43.740Z,20.90
2023-06-29T04:33:16.241Z,20.90
2023-06-29T04:35:45.008Z,20.90
2023-06-29T04:38:14.317Z,20.90
2023-06-29T04:40:41.398Z,20.90
2023-06-29T04:43:08.338Z,20.90
2023-06-29T04:45:35.332Z,20.90
2023-06-29T04:48:02.726Z,20.90
2023-06-29T04:50:36.358Z,20.90
2023-06-29T04:53:13.518Z,20.90
2023-06-29T04:55:40.813Z,20.90
2023-06-29T04:58:07.780Z,20.90
2023-06-29T05:00:34.685Z,20.90
2023-06-29T05:03:01.696Z,20.90
2023-06-29T05:05:28.572Z,20.90
2023-06-29T05:07:55.388Z,20.90
2023-06-29T05:10:22.458Z,20.90
2023-06-29T05:12:49.269Z,20.90
2023-06-29T05:15:16.644Z,21.00
2023-06-29T05:17:44.914Z,21.00
2023-06-29T05:20:14.806Z,21.00
2023-06-29T05:22:41.828Z,21.10
2023-06-29T05:25:09.169Z,21.10
2023-06-29T05:27:36.149Z,21.10
2023-06-29T05:30:04.035Z,21.10
2023-06-29T05:32:31.596Z,21.10
2023-06-29T05:34:58.458Z,21.20
2023-06-29T05:37:25.932Z,21.20
2023-06-29T05:39:52.796Z,21.20
2023-06-29T05:42:50.966Z,21.20
2023-06-29T05:45:21.150Z,21.20
2023-06-29T05:47:47.973Z,21.20
2023-06-29T05:50:17.861Z,21.20
2023-06-29T05:52:45.198Z,21.20
2023-06-29T05:55:12.114Z,21.20
2023-06-29T05:57:39.461Z,21.20
2023-06-29T06:00:13.728Z,21.20
2023-06-29T06:02:41.456Z,21.20
2023-06-29T06:05:08.860Z,21.30
2023-06-29T06:07:36.648Z,21.30
2023-06-29T06:10:06.391Z,21.40
2023-06-29T06:12:33.462Z,21.40
2023-06-29T06:15:00.310Z,21.50
2023-06-29T06:17:27.138Z,21.50
2023-06-29T06:19:55.560Z,21.60
2023-06-29T06:22:22.342Z,21.70
2023-06-29T06:24:49.078Z,21.70
2023-06-29T06:27:15.963Z,21.80
2023-06-29T06:29:42.757Z,21.90
2023-06-29T06:32:09.760Z,22.00
2023-06-29T06:34:36.562Z,22.00
2023-06-29T06:37:03.436Z,22.10
2023-06-29T06:39:33.899Z,22.20
2023-06-29T06:42:01.277Z,22.30
2023-06-29T06:44:28.200Z,22.40
2023-06-29T06:46:55.299Z,22.50
2023-06-29T06:49:22.128Z,22.60
2023-06-29T06:51:49.162Z,22.70
2023-06-29T06:54:22.752Z,22.80
2023-06-29T06:56:49.690Z,23.00
2023-06-29T06:59:16.814Z,23.10
2023-06-29T07:01:43.764Z,23.10
2023-06-29T07:04:10.765Z,23.10
2023-06-29T07:06:38.842Z,23.20
2023-06-29T07:09:05.922Z,23.30
2023-06-29T07:11:32.746Z,23.40
2023-06-29T07:13:59.542Z,23.80
2023-06-29T07:16:26.629Z,24.10
2023-06-29T07:21:38.513Z,25.00
2023-06-29T07:24:08.240Z,25.20
2023-06-29T07:26:36.053Z,25.20
2023-06-29T07:29:05.570Z,25.30
2023-06-29T07:31:32.649Z,25.30
2023-06-29T07:33:59.564Z,25.40
2023-06-29T07:36:27.950Z,25.40
2023-06-29T07:38:56.251Z,25.50
2023-06-29T07:41:23.637Z,25.60
2023-06-29T07:44:04.042Z,25.70
2023-06-29T07:46:33.047Z,25.90
2023-06-29T07:49:00.358Z,26.00
2023-06-29T07:51:33.388Z,26.10
2023-06-29T07:54:05.190Z,26.00
2023-06-29T07:59:05.846Z,25.70
2023-06-29T08:01:36.092Z,25.60
2023-06-29T08:04:04.781Z,25.60
2023-06-29T08:09:05.383Z,25.60
2023-06-29T08:11:32.274Z,25.60
2023-06-29T08:13:59.133Z,25.70
2023-06-29T08:16:26.043Z,25.90
2023-06-29T08:18:53.040Z,26.00
2023-06-29T08:21:19.922Z,26.00
2023-06-29T08:23:48.060Z,26.00
2023-06-29T08:26:14.930Z,26.00
2023-06-29T08:28:41.862Z,25.90
2023-06-29T08:31:08.909Z,25.90
2023-06-29T08:33:35.909Z,26.00
2023-06-29T08:36:02.732Z,26.10
2023-06-29T08:38:29.553Z,26.20
2023-06-29T08:40:59.490Z,26.40
2023-06-29T08:43:26.417Z,26.50
2023-06-29T08:45:53.614Z,26.60
2023-06-29T08:48:22.068Z,26.60
2023-06-29T08:51:02.132Z,26.60
2023-06-29T08:53:29.460Z,26.60
2023-06-29T08:55:58.876Z,26.50
2023-06-29T08:58:35.096Z,26.60
2023-06-29T09:01:02.730Z,26.60
2023-06-29T09:03:30.501Z,26.70
2023-06-29T09:05:57.910Z,26.60
2023-06-29T09:08:25.228Z,26.60
2023-06-29T09:10:52.120Z,26.60
2023-06-29T09:13:21.734Z,26.60
2023-06-29T09:15:49.728Z,26.70
2023-06-29T09:18:16.721Z,26.80
2023-06-29T09:20:45.274Z,26.90
2023-06-29T09:23:14.161Z,27.00
2023-06-29T09:26:07.913Z,27.10
2023-06-29T09:28:36.754Z,27.10
2023-06-29T09:31:13.467Z,27.00
2023-06-29T09:33:40.376Z,27.10
2023-06-29T09:36:10.505Z,27.20
2023-06-29T09:38:38.706Z,27.30
2023-06-29T09:41:07.871Z,27.20
2023-06-29T09:43:34.823Z,27.10
2023-06-29T09:46:08.908Z,27.00
2023-06-29T09:51:22.795Z,26.60
2023-06-29T09:53:49.896Z,26.50
2023-06-29T09:56:20.390Z,26.50
2023-06-29T09:58:47.705Z,26.40
2023-06-29T10:01:17.265Z,26.40
2023-06-29T10:03:45.187Z,26.30
2023-06-29T10:06:20.921Z,26.30
2023-06-29T10:08:54.772Z,26.30
2023-06-29T10:11:23.958Z,26.40
2023-06-29T10:14:01.294Z,26.50
2023-06-29T10:16:30.504Z,26.60
2023-06-29T10:19:10.620Z,26.60
2023-06-29T10:21:37.578Z,26.70
2023-06-29T10:24:05.786Z,26.80
2023-06-29T10:26:33.335Z,26.90
2023-06-29T10:29:00.251Z,27.00
2023-06-29T10:31:34.136Z,27.00
2023-06-29T10:34:01.624Z,27.10
2023-06-29T10:36:46.064Z,27.10
2023-06-29T10:39:42.003Z,27.30
2023-06-29T10:42:23.900Z,27.40
2023-06-29T10:44:51.042Z,27.30
2023-06-29T10:47:30.594Z,27.20
2023-06-29T10:50:12.844Z,27.10
2023-06-29T10:52:39.906Z,27.00
2023-06-29T10:55:16.961Z,26.90
2023-06-29T10:57:48.187Z,26.90
2023-06-29T11:00:16.890Z,26.90
2023-06-29T11:02:44.670Z,26.90
2023-06-29T11:05:15.445Z,27.00
2023-06-29T11:07:43.470Z,27.10
2023-06-29T11:10:11.359Z,27.20
2023-06-29T11:12:42.842Z,27.30
2023-06-29T11:18:07.035Z,27.60
2023-06-29T11:20:37.160Z,27.70
2023-06-29T11:23:04.048Z,27.70
2023-06-29T11:25:33.431Z,27.50
2023-06-29T11:28:00.353Z,27.40
2023-06-29T11:30:27.477Z,27.40
2023-06-29T11:32:55.086Z,27.20
2023-06-29T11:35:22.887Z,27.10
2023-06-29T11:37:51.725Z,27.00
2023-06-29T11:40:24.573Z,26.90
2023-06-29T11:42:55.452Z,26.90
2023-06-29T11:45:22.932Z,26.90
2023-06-29T11:47:56.940Z,26.90
2023-06-29T11:50:26.744Z,27.20
2023-06-29T11:53:06.755Z,27.40
2023-06-29T11:55:33.579Z,27.60
2023-06-29T11:58:00.981Z,27.60
2023-06-29T12:00:35.090Z,27.60
2023-06-29T12:03:09.596Z,27.60
2023-06-29T12:05:41.381Z,27.70
2023-06-29T12:08:12.730Z,27.80
2023-06-29T12:10:40.408Z,28.00
2023-06-29T12:13:10.851Z,28.30
2023-06-29T12:15:37.905Z,28.40
2023-06-29T12:18:09.925Z,28.70
2023-06-29T12:20:42.141Z,29.00
2023-06-29T12:23:14.136Z,29.20
2023-06-29T12:25:49.193Z,29.30
2023-06-29T12:28:16.246Z,29.30
2023-06-29T12:30:44.286Z,29.30
2023-06-29T12:33:14.619Z,29.20
2023-06-29T12:35:43.266Z,29.10
2023-06-29T12:38:11.043Z,29.00
2023-06-29T12:40:39.343Z,29.00
2023-06-29T12:43:09.226Z,29.00
2023-06-29T12:45:36.350Z,29.10
2023-06-29T12:48:04.903Z,29.10
2023-06-29T12:50:31.919Z,29.10
2023-06-29T12:52:58.836Z,29.10
2023-06-29T12:55:26.006Z,28.90
2023-06-29T12:57:52.814Z,28.80
2023-06-29T13:00:19.890Z,28.50
2023-06-29T13:02:53.058Z,28.30
2023-06-29T13:05:19.921Z,28.00
2023-06-29T13:07:46.785Z,27.60
2023-06-29T13:10:13.714Z,27.40
2023-06-29T13:12:42.057Z,27.10
2023-06-29T13:15:09.368Z,26.80
2023-06-29T13:17:36.295Z,26.50
2023-06-29T13:20:18.810Z,26.20
2023-06-29T13:22:45.915Z,25.80
2023-06-29T13:25:13.040Z,25.50
2023-06-29T13:27:41.716Z,25.20
2023-06-29T13:30:09.581Z,25.00
2023-06-29T13:32:36.565Z,24.80
2023-06-29T13:35:04.874Z,24.50
2023-06-29T13:37:31.953Z,24.30
2023-06-29T13:39:58.695Z,24.20
2023-06-29T13:42:25.395Z,24.10
2023-06-29T13:44:52.172Z,24.00
2023-06-29T13:47:20.727Z,24.00
2023-06-29T13:49:47.961Z,24.00
2023-06-29T13:52:15.130Z,24.00
2023-06-29T13:54:41.981Z,24.10
2023-06-29T13:57:08.758Z,24.10
2023-06-29T13:59:35.642Z,24.20
2023-06-29T14:02:02.689Z,24.30
2023-06-29T14:04:29.489Z,24.40
2023-06-29T14:06:56.268Z,24.50
2023-06-29T14:09:23.103Z,24.60
2023-06-29T14:11:52.717Z,24.60
2023-06-29T14:14:19.530Z,24.80
2023-06-29T14:16:46.623Z,24.80
2023-06-29T14:19:13.512Z,24.80
2023-06-29T14:21:40.393Z,24.80
2023-06-29T14:24:07.122Z,24.80
2023-06-29T14:26:33.894Z,24.90
2023-06-29T14:29:00.768Z,24.90
2023-06-29T14:31:27.775Z,24.90
2023-06-29T14:33:55.893Z,24.80
2023-06-29T14:36:22.818Z,24.80
2023-06-29T14:38:50.605Z,24.70
2023-06-29T14:41:18.752Z,24.60
2023-06-29T14:43:45.485Z,24.50
2023-06-29T14:46:12.424Z,24.50
2023-06-29T14:48:39.213Z,24.40
2023-06-29T14:51:06.045Z,24.40
2023-06-29T14:53:32.789Z,24.30
2023-06-29T14:56:10.827Z,24.30
2023-06-29T14:58:37.958Z,24.30
2023-06-29T15:01:05.192Z,24.30
2023-06-29T15:03:32.214Z,24.30
2023-06-29T15:05:59.177Z,24.30
2023-06-29T15:08:27.278Z,24.40
2023-06-29T15:10:54.059Z,24.50
2023-06-29T15:13:20.900Z,24.50
2023-06-29T15:15:48.190Z,24.60
2023-06-29T15:18:15.300Z,24.70
2023-06-29T15:20:42.146Z,24.90
2023-06-29T15:23:09.046Z,25.10
2023-06-29T15:25:43.344Z,25.30
2023-06-29T15:28:12.320Z,25.30
2023-06-29T15:30:51.768Z,25.30
2023-06-29T15:33:22.292Z,25.30
2023-06-29T15:35:49.733Z,25.30
2023-06-29T15:38:20.153Z,25.20
2023-06-29T15:40:48.945Z,25.20
2023-06-29T15:43:15.881Z,25.20
2023-06-29T15:45:43.087Z,25.30
2023-06-29T15:48:10.195Z,25.40
2023-06-29T15:50:37.114Z,25.60
2023-06-29T15:53:09.393Z,25.70
2023-06-29T15:55:39.305Z,25.90
2023-06-29T15:58:06.103Z,25.90
2023-06-29T16:00:32.850Z,25.90
2023-06-29T16:02:59.745Z,25.90
2023-06-29T16:05:26.600Z,25.90
2023-06-29T16:07:56.554Z,25.80
2023-06-29T16:10:25.846Z,25.80
2023-06-29T16:12:52.632Z,25.80
2023-06-29T16:15:19.454Z,25.70
2023-06-29T16:17:46.479Z,25.70
2023-06-29T16:20:13.399Z,25.70
2023-06-29T16:22:49.318Z,25.70
2023-06-29T16:25:16.307Z,25.60
2023-06-29T16:27:46.121Z,25.50
2023-06-29T16:30:13.586Z,25.40
2023-06-29T16:32:40.487Z,25.30
2023-06-29T16:35:07.675Z,25.30
2023-06-29T16:37:34.559Z,25.30
2023-06-29T16:40:01.423Z,25.30
2023-06-29T16:42:28.163Z,25.30
2023-06-29T16:44:54.950Z,25.40
2023-06-29T16:47:21.746Z,25.30
2023-06-29T16:49:48.511Z,25.30
2023-06-29T16:52:16.300Z,25.30
2023-06-29T16:54:43.056Z,25.20
2023-06-29T16:57:12.688Z,25.00
2023-06-29T16:59:40.044Z,24.90
2023-06-29T17:02:07.566Z,24.80
2023-06-29T17:04:34.650Z,24.70
2023-06-29T17:07:01.421Z,24.60
2023-06-29T17:09:28.216Z,24.40
2023-06-29T17:11:55.085Z,24.30
2023-06-29T17:14:21.979Z,24.10
2023-06-29T17:16:49.054Z,24.00
2023-06-29T17:19:16.055Z,23.90
2023-06-29T17:21:42.778Z,23.80
2023-06-29T17:24:09.569Z,23.70
2023-06-29T17:26:36.516Z,23.70
2023-06-29T17:29:03.440Z,23.60
2023-06-29T17:31:31.925Z,23.40
2023-06-29T17:33:58.829Z,23.20
2023-06-29T17:36:25.779Z,23.00
2023-06-29T17:38:56.107Z,22.90
2023-06-29T17:41:22.850Z,22.90
2023-06-29T17:43:49.813Z,22.90
2023-06-29T17:46:20.028Z,22.80
2023-06-29T17:48:47.261Z,22.70
2023-06-29T17:51:19.201Z,22.60
2023-06-29T17:53:47.373Z,22.50
2023-06-29T17:56:17.317Z,22.40
2023-06-29T17:58:44.938Z,22.40
2023-06-29T18:01:12.409Z,22.30
2023-06-29T18:03:40.580Z,22.20
2023-06-29T18:06:08.145Z,22.10
2023-06-29T18:08:35.011Z,22.10
2023-06-29T18:11:02.258Z,22.00
2023-06-29T18:13:28.996Z,21.90
2023-06-29T18:15:56.041Z,21.80
2023-06-29T18:18:22.905Z,21.70
2023-06-29T18:20:49.652Z,21.60
2023-06-29T18:23:16.462Z,21.50
2023-06-29T18:25:43.454Z,21.40
2023-06-29T18:28:10.582Z,21.30
2023-06-29T18:30:37.433Z,21.30
2023-06-29T18:33:04.717Z,21.20
2023-06-29T18:35:31.466Z,21.10
2023-06-29T18:37:58.362Z,21.10
2023-06-29T18:40:28.058Z,21.00
2023-06-29T18:42:55.184Z,21.00
2023-06-29T18:45:24.203Z,20.90
2023-06-29T18:47:53.811Z,20.80
2023-06-29T18:50:20.672Z,20.70
2023-06-29T18:52:47.590Z,20.60
2023-06-29T18:55:14.480Z,20.50
2023-06-29T18:57:44.462Z,20.40
2023-06-29T19:00:14.543Z,20.30
2023-06-29T19:02:43.502Z,20.20
2023-06-29T19:05:11.146Z,20.10
2023-06-29T19:07:38.380Z,20.00
2023-06-29T19:10:06.042Z,19.90
2023-06-29T19:12:32.817Z,19.80
2023-06-29T19:14:59.644Z,19.70
2023-06-29T19:17:26.638Z,19.50
2023-06-29T19:19:53.621Z,19.40
2023-06-29T19:22:20.508Z,19.30
2023-06-29T19:24:47.484Z,19.20
2023-06-29T19:27:14.227Z,19.20
2023-06-29T19:29:41.012Z,19.10
2023-06-29T19:32:11.300Z,19.10
2023-06-29T19:34:38.207Z,19.00
2023-06-29T19:37:05.316Z,19.00
2023-06-29T19:39:32.237Z,18.90
2023-06-29T19:41:59.060Z,18.90
2023-06-29T19:44:25.939Z,18.90
2023-06-29T19:46:52.786Z,18.90
2023-06-29T19:49:20.254Z,18.90
2023-06-29T19:51:47.088Z,18.90
2023-06-29T19:54:13.885Z,18.90
2023-06-29T19:56:40.814Z,18.90
2023-06-29T19:59:07.662Z,18.90
2023-06-29T20:01:34.537Z,18.90
2023-06-29T20:04:01.401Z,18.90
2023-06-29T20:06:28.973Z,18.90
2023-06-29T20:08:55.989Z,18.90
2023-06-29T20:11:23.894Z,18.80
2023-06-29T20:13:51.278Z,18.80
2023-06-29T20:16:18.196Z,18.80
2023-06-29T20:18:45.129Z,18.80
2023-06-29T20:21:12.903Z,18.70
2023-06-29T20:23:39.813Z,18.70
2023-06-29T20:26:06.757Z,18.70
2023-06-29T20:28:33.900Z,18.70
2023-06-29T20:31:00.768Z,18.70
2023-06-29T20:33:40.944Z,18.70
2023-06-29T20:36:07.975Z,18.70
2023-06-29T20:38:37.578Z,18.60
2023-06-29T20:41:04.446Z,18.60
2023-06-29T20:43:31.312Z,18.60
2023-06-29T20:45:58.135Z,18.50
2023-06-29T20:48:25.325Z,18.50
2023-06-29T20:51:07.294Z,18.40
2023-06-29T20:53:43.705Z,18.40
2023-06-29T20:56:10.429Z,18.30
2023-06-29T20:58:37.893Z,18.30
2023-06-29T21:01:07.066Z,18.30
2023-06-29T21:03:38.844Z,18.30
2023-06-29T21:06:05.866Z,18.30
2023-06-29T21:08:32.617Z,18.30
2023-06-29T21:10:59.441Z,18.30
2023-06-29T21:13:26.684Z,18.30
2023-06-29T21:15:59.861Z,18.30
2023-06-29T21:18:28.100Z,18.30
2023-06-29T21:20:55.450Z,18.30
2023-06-29T21:23:22.472Z,18.30
2023-06-29T21:25:49.597Z,18.30
2023-06-29T21:28:16.545Z,18.30
2023-06-29T21:30:44.091Z,18.30
2023-06-29T21:33:11.174Z,18.30
2023-06-29T21:35:38.446Z,18.30
2023-06-29T21:38:05.508Z,18.30
2023-06-29T21:40:32.331Z,18.20
2023-06-29T21:42:59.093Z,18.20
2023-06-29T21:45:28.020Z,18.20
2023-06-29T21:47:55.296Z,18.20
2023-06-29T21:50:22.507Z,18.20
2023-06-29T21:52:49.353Z,18.20
2023-06-29T21:55:16.191Z,18.20
2023-06-29T21:57:43.035Z,18.20
2023-06-29T22:00:13.060Z,18.10
2023-06-29T22:02:40.735Z,18.10
2023-06-29T22:05:07.816Z,18.10
2023-06-29T22:07:34.689Z,18.00
2023-06-29T22:10:01.546Z,18.00
2023-06-29T22:12:29.085Z,18.00
2023-06-29T22:14:56.660Z,18.00
2023-06-29T22:17:24.000Z,18.00
2023-06-29T22:20:16.971Z,18.00
2023-06-29T22:22:44.223Z,18.00
2023-06-29T22:25:11.042Z,18.00
2023-06-29T22:27:37.977Z,18.00
2023-06-29T22:30:05.240Z,17.90
2023-06-29T22:32:32.478Z,17.90
2023-06-29T22:34:59.350Z,17.90
2023-06-29T22:37:26.196Z,17.90
